sensor_id;sensor_type;location;lat;lon;timestamp;temperature;humidity
48936;DHT22;34745;52.276;10.528;2023-01-09T00:01:32;7.30;99.90
48936;DHT22;34745;52.276;10.528;2023-01-09T00:04:00;7.20;99.90
48936;DHT22;34745;52.276;10.528;2023-01-09T00:06:28;7.20;99.90
48936;DHT22;34745;52.276;10.528;2023-01-09T00:08:56;7.20;99.90
48936;DHT22;34745;52.276;10.528;2023-01-09T00:11:22;7.10;99.90
48936;DHT22;34745;52.276;10.528;2023-01-09T00:13:50;7.10;99.90
48936;DHT22;34745;52.276;10.528;2023-01-09T00:16:17;7.10;99.90
48936;DHT22;34745;52.276;10.528;2023-01-09T00:18:45;7.00;99.90
48936;DHT22;34745;52.276;10.528;2023-01-09T00:21:12;7.00;99.90
48936;DHT22;34745;52.276;10.528;2023-01-09T00:23:41;7.00;99.90
48936;DHT22;34745;52.276;10.528;2023-01-09T00:26:10;6.90;99.90
48936;DHT22;34745;52.276;10.528;2023-01-09T00:28:38;6.90;99.90
48936;DHT22;34745;52.276;10.528;2023-01-09T00:31:08;6.90;99.90
48936;DHT22;34745;52.276;10.528;2023-01-09T00:33:38;6.80;99.90
48936;DHT22;34745;52.276;10.528;2023-01-09T00:36:07;6.90;99.90
48936;DHT22;34745;52.276;10.528;2023-01-09T00:38:34;7.00;99.90
48936;DHT22;34745;52.276;10.528;2023-01-09T00:41:05;7.00;99.90
48936;DHT22;34745;52.276;10.528;2023-01-09T00:43:37;7.00;99.90
48936;DHT22;34745;52.276;10.528;2023-01-09T00:46:05;7.00;99.90
48936;DHT22;34745;52.276;10.528;2023-01-09T00:48:34;7.10;99.90
48936;DHT22;34745;52.276;10.528;2023-01-09T00:51:03;7.10;99.90
48936;DHT22;34745;52.276;10.528;2023-01-09T00:53:31;7.10;99.90
48936;DHT22;34745;52.276;10.528;2023-01-09T00:56:02;7.10;99.90
48936;DHT22;34745;52.276;10.528;2023-01-09T00:58:32;7.10;99.90
48936;DHT22;34745;52.276;10.528;2023-01-09T01:00:59;7.10;99.90
48936;DHT22;34745;52.276;10.528;2023-01-09T01:03:26;7.20;99.90
48936;DHT22;34745;52.276;10.528;2023-01-09T01:05:53;7.20;99.90
48936;DHT22;34745;52.276;10.528;2023-01-09T01:08:39;7.20;99.90
48936;DHT22;34745;52.276;10.528;2023-01-09T01:11:07;7.30;99.90
48936;DHT22;34745;52.276;10.528;2023-01-09T01:13:38;7.30;99.90
48936;DHT22;34745;52.276;10.528;2023-01-09T01:16:07;7.30;99.90
48936;DHT22;34745;52.276;10.528;2023-01-09T01:18:35;7.40;99.90
48936;DHT22;34745;52.276;10.528;2023-01-09T01:21:05;7.40;99.90
48936;DHT22;34745;52.276;10.528;2023-01-09T01:23:32;7.40;99.90
48936;DHT22;34745;52.276;10.528;2023-01-09T01:26:03;7.40;99.90
48936;DHT22;34745;52.276;10.528;2023-01-09T01:28:31;7.40;99.90
48936;DHT22;34745;52.276;10.528;2023-01-09T01:30:59;7.40;99.90
48936;DHT22;34745;52.276;10.528;2023-01-09T01:33:27;7.40;99.90
48936;DHT22;34745;52.276;10.528;2023-01-09T01:35:59;7.40;99.90
48936;DHT22;34745;52.276;10.528;2023-01-09T01:38:27;7.40;99.90
48936;DHT22;34745;52.276;10.528;2023-01-09T01:40:55;7.40;99.90
48936;DHT22;34745;52.276;10.528;2023-01-09T01:43:22;7.40;99.90
48936;DHT22;34745;52.276;10.528;2023-01-09T01:45:50;7.50;99.90
48936;DHT22;34745;52.276;10.528;2023-01-09T01:48:21;7.50;99.90
48936;DHT22;34745;52.276;10.528;2023-01-09T01:50:52;7.50;99.90
48936;DHT22;34745;52.276;10.528;2023-01-09T01:53:24;7.50;99.90
48936;DHT22;34745;52.276;10.528;2023-01-09T01:55:59;7.50;99.90
48936;DHT22;34745;52.276;10.528;2023-01-09T01:58:29;7.50;99.90
48936;DHT22;34745;52.276;10.528;2023-01-09T02:00:56;7.50;99.90
48936;DHT22;34745;52.276;10.528;2023-01-09T02:03:27;7.40;99.90
48936;DHT22;34745;52.276;10.528;2023-01-09T02:05:55;7.40;99.90
48936;DHT22;34745;52.276;10.528;2023-01-09T02:08:22;7.40;99.90
48936;DHT22;34745;52.276;10.528;2023-01-09T02:10:49;7.50;99.90
48936;DHT22;34745;52.276;10.528;2023-01-09T02:13:17;7.40;99.90
48936;DHT22;34745;52.276;10.528;2023-01-09T02:16:08;7.40;99.90
48936;DHT22;34745;52.276;10.528;2023-01-09T02:18:48;7.40;99.90
48936;DHT22;34745;52.276;10.528;2023-01-09T02:21:27;7.40;99.90
48936;DHT22;34745;52.276;10.528;2023-01-09T02:24:22;7.40;99.90
48936;DHT22;34745;52.276;10.528;2023-01-09T02:30:31;7.40;99.90
48936;DHT22;34745;52.276;10.528;2023-01-09T02:33:23;7.40;99.90
48936;DHT22;34745;52.276;10.528;2023-01-09T02:36:00;7.40;99.90
48936;DHT22;34745;52.276;10.528;2023-01-09T02:38:35;7.40;99.90
48936;DHT22;34745;52.276;10.528;2023-01-09T02:41:07;7.40;99.90
48936;DHT22;34745;52.276;10.528;2023-01-09T02:43:38;7.40;99.90
48936;DHT22;34745;52.276;10.528;2023-01-09T02:46:19;7.40;99.90
48936;DHT22;34745;52.276;10.528;2023-01-09T02:48:50;7.40;99.90
48936;DHT22;34745;52.276;10.528;2023-01-09T02:51:25;7.40;99.90
48936;DHT22;34745;52.276;10.528;2023-01-09T02:54:15;7.40;99.90
48936;DHT22;34745;52.276;10.528;2023-01-09T02:57:02;7.40;99.90
48936;DHT22;34745;52.276;10.528;2023-01-09T02:59:35;7.40;99.90
48936;DHT22;34745;52.276;10.528;2023-01-09T03:02:16;7.40;99.90
48936;DHT22;34745;52.276;10.528;2023-01-09T03:04:56;7.40;99.90
48936;DHT22;34745;52.276;10.528;2023-01-09T03:07:31;7.40;99.90
48936;DHT22;34745;52.276;10.528;2023-01-09T03:10:05;7.40;99.90
48936;DHT22;34745;52.276;10.528;2023-01-09T03:12:35;7.30;99.90
48936;DHT22;34745;52.276;10.528;2023-01-09T03:15:05;7.40;99.90
48936;DHT22;34745;52.276;10.528;2023-01-09T03:17:38;7.40;99.90
48936;DHT22;34745;52.276;10.528;2023-01-09T03:20:08;7.40;99.90
48936;DHT22;34745;52.276;10.528;2023-01-09T03:22:38;7.30;99.90
48936;DHT22;34745;52.276;10.528;2023-01-09T03:25:05;7.30;99.90
48936;DHT22;34745;52.276;10.528;2023-01-09T03:27:32;7.30;99.90
48936;DHT22;34745;52.276;10.528;2023-01-09T03:29:59;7.30;99.90
48936;DHT22;34745;52.276;10.528;2023-01-09T03:32:26;7.30;99.90
48936;DHT22;34745;52.276;10.528;2023-01-09T03:34:54;7.30;99.90
48936;DHT22;34745;52.276;10.528;2023-01-09T03:37:22;7.30;99.90
48936;DHT22;34745;52.276;10.528;2023-01-09T03:39:48;7.30;99.90
48936;DHT22;34745;52.276;10.528;2023-01-09T03:42:16;7.30;99.90
48936;DHT22;34745;52.276;10.528;2023-01-09T03:44:43;7.30;99.90
48936;DHT22;34745;52.276;10.528;2023-01-09T03:47:10;7.30;99.90
48936;DHT22;34745;52.276;10.528;2023-01-09T03:49:36;7.30;99.90
48936;DHT22;34745;52.276;10.528;2023-01-09T03:52:05;7.30;99.90
48936;DHT22;34745;52.276;10.528;2023-01-09T03:54:32;7.30;99.90
48936;DHT22;34745;52.276;10.528;2023-01-09T03:56:59;7.20;99.90
48936;DHT22;34745;52.276;10.528;2023-01-09T03:59:26;7.30;99.90
48936;DHT22;34745;52.276;10.528;2023-01-09T04:01:53;7.30;99.90
48936;DHT22;34745;52.276;10.528;2023-01-09T04:04:20;7.30;99.90
48936;DHT22;34745;52.276;10.528;2023-01-09T04:06:47;7.20;99.90
48936;DHT22;34745;52.276;10.528;2023-01-09T04:09:16;7.20;99.90
48936;DHT22;34745;52.276;10.528;2023-01-09T04:11:43;7.20;99.90
48936;DHT22;34745;52.276;10.528;2023-01-09T04:14:09;7.20;99.90
48936;DHT22;34745;52.276;10.528;2023-01-09T04:16:36;7.20;99.90
48936;DHT22;34745;52.276;10.528;2023-01-09T04:19:03;7.20;99.90
48936;DHT22;34745;52.276;10.528;2023-01-09T04:21:30;7.10;99.90
48936;DHT22;34745;52.276;10.528;2023-01-09T04:23:57;7.10;99.90
48936;DHT22;34745;52.276;10.528;2023-01-09T04:26:25;7.20;99.90
48936;DHT22;34745;52.276;10.528;2023-01-09T04:28:52;7.10;99.90
48936;DHT22;34745;52.276;10.528;2023-01-09T04:31:19;7.10;99.90
48936;DHT22;34745;52.276;10.528;2023-01-09T04:33:46;7.20;99.90
48936;DHT22;34745;52.276;10.528;2023-01-09T04:36:13;7.20;99.90
48936;DHT22;34745;52.276;10.528;2023-01-09T04:38:40;7.20;99.90
48936;DHT22;34745;52.276;10.528;2023-01-09T04:41:07;7.20;99.90
48936;DHT22;34745;52.276;10.528;2023-01-09T04:43:36;7.20;99.90
48936;DHT22;34745;52.276;10.528;2023-01-09T04:46:02;7.20;99.90
48936;DHT22;34745;52.276;10.528;2023-01-09T04:48:30;7.20;99.90
48936;DHT22;34745;52.276;10.528;2023-01-09T04:50:57;7.20;99.90
48936;DHT22;34745;52.276;10.528;2023-01-09T04:53:24;7.20;99.90
48936;DHT22;34745;52.276;10.528;2023-01-09T04:55:50;7.20;99.90
48936;DHT22;34745;52.276;10.528;2023-01-09T04:58:17;7.20;99.90
48936;DHT22;34745;52.276;10.528;2023-01-09T05:00:45;7.20;99.90
48936;DHT22;34745;52.276;10.528;2023-01-09T05:03:13;7.20;99.90
48936;DHT22;34745;52.276;10.528;2023-01-09T05:05:39;7.20;99.90
48936;DHT22;34745;52.276;10.528;2023-01-09T05:08:07;7.20;99.90
48936;DHT22;34745;52.276;10.528;2023-01-09T05:10:33;7.20;99.90
48936;DHT22;34745;52.276;10.528;2023-01-09T05:13:00;7.20;99.90
48936;DHT22;34745;52.276;10.528;2023-01-09T05:15:27;7.10;99.90
48936;DHT22;34745;52.276;10.528;2023-01-09T05:17:58;7.20;99.90
48936;DHT22;34745;52.276;10.528;2023-01-09T05:20:24;7.20;99.90
48936;DHT22;34745;52.276;10.528;2023-01-09T05:22:51;7.30;99.90
48936;DHT22;34745;52.276;10.528;2023-01-09T05:25:18;7.20;99.90
48936;DHT22;34745;52.276;10.528;2023-01-09T05:27:45;7.20;99.90
48936;DHT22;34745;52.276;10.528;2023-01-09T05:30:14;7.20;99.90
48936;DHT22;34745;52.276;10.528;2023-01-09T05:32:44;7.20;99.90
48936;DHT22;34745;52.276;10.528;2023-01-09T05:35:12;7.20;99.90
48936;DHT22;34745;52.276;10.528;2023-01-09T05:37:39;7.10;99.90
48936;DHT22;34745;52.276;10.528;2023-01-09T05:40:07;7.20;99.90
48936;DHT22;34745;52.276;10.528;2023-01-09T05:42:34;7.10;99.90
48936;DHT22;34745;52.276;10.528;2023-01-09T05:45:01;7.10;99.90
48936;DHT22;34745;52.276;10.528;2023-01-09T05:47:28;7.10;99.90
48936;DHT22;34745;52.276;10.528;2023-01-09T05:49:55;7.10;99.90
48936;DHT22;34745;52.276;10.528;2023-01-09T05:52:23;7.10;99.90
48936;DHT22;34745;52.276;10.528;2023-01-09T05:54:50;7.20;99.90
48936;DHT22;34745;52.276;10.528;2023-01-09T05:57:18;7.20;99.90
48936;DHT22;34745;52.276;10.528;2023-01-09T05:59:44;7.20;99.90
48936;DHT22;34745;52.276;10.528;2023-01-09T06:02:11;7.20;99.90
48936;DHT22;34745;52.276;10.528;2023-01-09T06:04:38;7.20;99.90
48936;DHT22;34745;52.276;10.528;2023-01-09T06:07:05;7.30;99.90
48936;DHT22;34745;52.276;10.528;2023-01-09T06:09:34;7.30;99.90
48936;DHT22;34745;52.276;10.528;2023-01-09T06:12:01;7.30;99.90
48936;DHT22;34745;52.276;10.528;2023-01-09T06:14:28;7.30;99.90
48936;DHT22;34745;52.276;10.528;2023-01-09T06:16:55;7.30;99.90
48936;DHT22;34745;52.276;10.528;2023-01-09T06:19:22;7.30;99.90
48936;DHT22;34745;52.276;10.528;2023-01-09T06:21:49;7.40;99.90
48936;DHT22;34745;52.276;10.528;2023-01-09T06:24:16;7.40;99.90
48936;DHT22;34745;52.276;10.528;2023-01-09T06:26:44;7.40;99.90
48936;DHT22;34745;52.276;10.528;2023-01-09T06:29:11;7.50;99.90
48936;DHT22;34745;52.276;10.528;2023-01-09T06:31:38;7.50;99.90
48936;DHT22;34745;52.276;10.528;2023-01-09T06:34:05;7.50;99.90
48936;DHT22;34745;52.276;10.528;2023-01-09T06:36:32;7.40;99.90
48936;DHT22;34745;52.276;10.528;2023-01-09T06:38:59;7.50;99.90
48936;DHT22;34745;52.276;10.528;2023-01-09T06:41:26;7.50;99.90
48936;DHT22;34745;52.276;10.528;2023-01-09T06:43:55;7.50;99.90
48936;DHT22;34745;52.276;10.528;2023-01-09T06:46:22;7.50;99.90
48936;DHT22;34745;52.276;10.528;2023-01-09T06:48:49;7.60;99.90
48936;DHT22;34745;52.276;10.528;2023-01-09T06:51:16;7.50;99.90
48936;DHT22;34745;52.276;10.528;2023-01-09T06:53:43;7.60;99.90
48936;DHT22;34745;52.276;10.528;2023-01-09T06:56:10;7.60;99.90
48936;DHT22;34745;52.276;10.528;2023-01-09T06:58:36;7.60;99.90
48936;DHT22;34745;52.276;10.528;2023-01-09T07:01:05;7.60;99.90
48936;DHT22;34745;52.276;10.528;2023-01-09T07:03:32;7.60;99.90
48936;DHT22;34745;52.276;10.528;2023-01-09T07:05:59;7.70;99.90
48936;DHT22;34745;52.276;10.528;2023-01-09T07:08:26;7.70;99.90
48936;DHT22;34745;52.276;10.528;2023-01-09T07:10:53;7.70;99.90
48936;DHT22;34745;52.276;10.528;2023-01-09T07:13:20;7.70;99.90
48936;DHT22;34745;52.276;10.528;2023-01-09T07:15:47;7.70;99.90
48936;DHT22;34745;52.276;10.528;2023-01-09T07:18:17;7.70;99.90
48936;DHT22;34745;52.276;10.528;2023-01-09T07:20:44;7.70;99.90
48936;DHT22;34745;52.276;10.528;2023-01-09T07:23:11;7.70;99.90
48936;DHT22;34745;52.276;10.528;2023-01-09T07:25:41;7.70;99.90
48936;DHT22;34745;52.276;10.528;2023-01-09T07:28:08;7.60;99.90
48936;DHT22;34745;52.276;10.528;2023-01-09T07:30:35;7.60;99.90
48936;DHT22;34745;52.276;10.528;2023-01-09T07:33:02;7.60;99.90
48936;DHT22;34745;52.276;10.528;2023-01-09T07:35:31;7.50;99.90
48936;DHT22;34745;52.276;10.528;2023-01-09T07:37:58;7.50;99.90
48936;DHT22;34745;52.276;10.528;2023-01-09T07:40:25;7.50;99.90
48936;DHT22;34745;52.276;10.528;2023-01-09T07:42:53;7.80;99.90
48936;DHT22;34745;52.276;10.528;2023-01-09T07:45:20;8.10;99.90
48936;DHT22;34745;52.276;10.528;2023-01-09T07:47:47;8.10;99.90
48936;DHT22;34745;52.276;10.528;2023-01-09T07:50:14;8.20;99.90
48936;DHT22;34745;52.276;10.528;2023-01-09T07:52:45;7.90;99.90
48936;DHT22;34745;52.276;10.528;2023-01-09T07:55:12;7.60;99.90
48936;DHT22;34745;52.276;10.528;2023-01-09T07:57:42;7.50;99.90
48936;DHT22;34745;52.276;10.528;2023-01-09T08:00:10;7.30;99.90
48936;DHT22;34745;52.276;10.528;2023-01-09T08:02:38;7.20;99.90
48936;DHT22;34745;52.276;10.528;2023-01-09T08:05:06;7.20;99.90
48936;DHT22;34745;52.276;10.528;2023-01-09T08:07:34;7.10;99.90
48936;DHT22;34745;52.276;10.528;2023-01-09T08:10:04;7.10;99.90
48936;DHT22;34745;52.276;10.528;2023-01-09T08:12:31;7.00;99.90
48936;DHT22;34745;52.276;10.528;2023-01-09T08:14:58;7.00;99.90
48936;DHT22;34745;52.276;10.528;2023-01-09T08:17:25;7.00;99.90
48936;DHT22;34745;52.276;10.528;2023-01-09T08:19:52;7.00;99.90
48936;DHT22;34745;52.276;10.528;2023-01-09T08:22:19;6.90;99.90
48936;DHT22;34745;52.276;10.528;2023-01-09T08:24:47;6.90;99.90
48936;DHT22;34745;52.276;10.528;2023-01-09T08:27:15;6.80;99.90
48936;DHT22;34745;52.276;10.528;2023-01-09T08:29:48;6.80;99.90
48936;DHT22;34745;52.276;10.528;2023-01-09T08:32:22;6.80;99.90
48936;DHT22;34745;52.276;10.528;2023-01-09T08:34:49;6.80;99.90
48936;DHT22;34745;52.276;10.528;2023-01-09T08:37:16;6.80;99.90
48936;DHT22;34745;52.276;10.528;2023-01-09T08:39:43;6.90;99.90
48936;DHT22;34745;52.276;10.528;2023-01-09T08:42:10;6.90;99.90
48936;DHT22;34745;52.276;10.528;2023-01-09T08:44:57;7.00;99.90
48936;DHT22;34745;52.276;10.528;2023-01-09T08:47:42;6.90;99.90
48936;DHT22;34745;52.276;10.528;2023-01-09T08:50:10;7.00;99.90
48936;DHT22;34745;52.276;10.528;2023-01-09T08:52:37;7.00;99.90
48936;DHT22;34745;52.276;10.528;2023-01-09T08:55:05;7.10;99.90
48936;DHT22;34745;52.276;10.528;2023-01-09T08:57:32;7.10;99.90
48936;DHT22;34745;52.276;10.528;2023-01-09T09:00:00;7.20;99.90
48936;DHT22;34745;52.276;10.528;2023-01-09T09:02:28;7.10;99.90
48936;DHT22;34745;52.276;10.528;2023-01-09T09:04:55;7.20;99.90
48936;DHT22;34745;52.276;10.528;2023-01-09T09:07:21;7.20;99.90
48936;DHT22;34745;52.276;10.528;2023-01-09T09:09:52;7.30;99.90
48936;DHT22;34745;52.276;10.528;2023-01-09T09:12:19;7.30;99.90
48936;DHT22;34745;52.276;10.528;2023-01-09T09:14:47;7.40;93.70
48936;DHT22;34745;52.276;10.528;2023-01-09T09:17:34;7.40;92.90
48936;DHT22;34745;52.276;10.528;2023-01-09T09:20:01;7.40;73.70
48936;DHT22;34745;52.276;10.528;2023-01-09T09:22:28;7.50;65.20
48936;DHT22;34745;52.276;10.528;2023-01-09T09:24:55;7.50;78.50
48936;DHT22;34745;52.276;10.528;2023-01-09T09:27:22;7.50;88.50
48936;DHT22;34745;52.276;10.528;2023-01-09T09:29:49;7.50;92.40
48936;DHT22;34745;52.276;10.528;2023-01-09T09:32:16;7.50;93.60
48936;DHT22;34745;52.276;10.528;2023-01-09T09:34:44;7.50;96.80
48936;DHT22;34745;52.276;10.528;2023-01-09T09:37:11;7.50;99.30
48936;DHT22;34745;52.276;10.528;2023-01-09T09:39:38;7.60;77.70
48936;DHT22;34745;52.276;10.528;2023-01-09T09:42:16;7.70;70.30
48936;DHT22;34745;52.276;10.528;2023-01-09T09:45:15;7.70;76.10
48936;DHT22;34745;52.276;10.528;2023-01-09T09:47:50;7.80;50.50
48936;DHT22;34745;52.276;10.528;2023-01-09T09:50:32;7.80;50.60
48936;DHT22;34745;52.276;10.528;2023-01-09T09:53:07;7.90;53.00
48936;DHT22;34745;52.276;10.528;2023-01-09T09:55:37;8.00;38.40
48936;DHT22;34745;52.276;10.528;2023-01-09T09:58:09;8.00;19.50
48936;DHT22;34745;52.276;10.528;2023-01-09T10:00:38;7.90;16.50
48936;DHT22;34745;52.276;10.528;2023-01-09T10:03:07;7.90;11.40
48936;DHT22;34745;52.276;10.528;2023-01-09T10:05:41;8.00;3.60
48936;DHT22;34745;52.276;10.528;2023-01-09T10:08:14;8.00;1.00
48936;DHT22;34745;52.276;10.528;2023-01-09T10:10:51;8.10;1.00
48936;DHT22;34745;52.276;10.528;2023-01-09T10:13:19;8.10;1.00
48936;DHT22;34745;52.276;10.528;2023-01-09T10:16:16;8.20;1.00
48936;DHT22;34745;52.276;10.528;2023-01-09T10:18:57;8.30;1.00
48936;DHT22;34745;52.276;10.528;2023-01-09T10:21:31;8.60;1.00
48936;DHT22;34745;52.276;10.528;2023-01-09T10:24:27;8.80;1.00
48936;DHT22;34745;52.276;10.528;2023-01-09T10:26:57;8.70;1.00
48936;DHT22;34745;52.276;10.528;2023-01-09T10:29:48;8.90;1.00
48936;DHT22;34745;52.276;10.528;2023-01-09T10:32:30;9.40;1.00
48936;DHT22;34745;52.276;10.528;2023-01-09T10:35:25;10.10;1.00
48936;DHT22;34745;52.276;10.528;2023-01-09T10:38:18;9.70;1.00
48936;DHT22;34745;52.276;10.528;2023-01-09T10:40:51;9.10;1.00
48936;DHT22;34745;52.276;10.528;2023-01-09T10:43:27;8.80;1.00
48936;DHT22;34745;52.276;10.528;2023-01-09T10:45:59;8.70;1.00
48936;DHT22;34745;52.276;10.528;2023-01-09T10:48:31;8.60;1.00
48936;DHT22;34745;52.276;10.528;2023-01-09T10:50:59;8.60;1.00
48936;DHT22;34745;52.276;10.528;2023-01-09T10:53:31;8.60;1.00
48936;DHT22;34745;52.276;10.528;2023-01-09T10:56:06;8.60;1.00
48936;DHT22;34745;52.276;10.528;2023-01-09T10:58:34;8.70;1.00
48936;DHT22;34745;52.276;10.528;2023-01-09T11:01:01;8.50;1.00
48936;DHT22;34745;52.276;10.528;2023-01-09T11:03:28;8.60;1.00
48936;DHT22;34745;52.276;10.528;2023-01-09T11:05:57;8.70;1.00
48936;DHT22;34745;52.276;10.528;2023-01-09T11:08:29;9.20;1.00
48936;DHT22;34745;52.276;10.528;2023-01-09T11:10:58;9.10;1.00
48936;DHT22;34745;52.276;10.528;2023-01-09T11:13:27;9.00;1.00
48936;DHT22;34745;52.276;10.528;2023-01-09T11:16:13;8.90;1.00
48936;DHT22;34745;52.276;10.528;2023-01-09T11:18:48;8.90;1.00
48936;DHT22;34745;52.276;10.528;2023-01-09T11:21:32;9.20;1.00
48936;DHT22;34745;52.276;10.528;2023-01-09T11:24:27;9.50;1.00
48936;DHT22;34745;52.276;10.528;2023-01-09T11:27:15;9.60;1.00
48936;DHT22;34745;52.276;10.528;2023-01-09T11:30:21;9.80;1.00
48936;DHT22;34745;52.276;10.528;2023-01-09T11:32:52;9.90;1.00
48936;DHT22;34745;52.276;10.528;2023-01-09T11:35:23;9.70;1.00
48936;DHT22;34745;52.276;10.528;2023-01-09T11:38:02;9.30;1.00
48936;DHT22;34745;52.276;10.528;2023-01-09T11:40:36;9.20;1.00
48936;DHT22;34745;52.276;10.528;2023-01-09T11:43:12;9.00;1.00
48936;DHT22;34745;52.276;10.528;2023-01-09T11:45:48;9.10;1.00
48936;DHT22;34745;52.276;10.528;2023-01-09T11:48:52;9.90;1.00
48936;DHT22;34745;52.276;10.528;2023-01-09T11:51:21;10.30;1.00
48936;DHT22;34745;52.276;10.528;2023-01-09T11:54:14;10.00;1.00
48936;DHT22;34745;52.276;10.528;2023-01-09T11:56:45;9.60;1.00
48936;DHT22;34745;52.276;10.528;2023-01-09T11:59:14;9.30;1.00
48936;DHT22;34745;52.276;10.528;2023-01-09T12:01:54;9.20;1.00
48936;DHT22;34745;52.276;10.528;2023-01-09T12:04:27;9.00;1.00
48936;DHT22;34745;52.276;10.528;2023-01-09T12:07:10;9.00;1.00
48936;DHT22;34745;52.276;10.528;2023-01-09T12:09:46;9.10;1.00
48936;DHT22;34745;52.276;10.528;2023-01-09T12:12:25;9.10;1.00
48936;DHT22;34745;52.276;10.528;2023-01-09T12:15:05;9.00;1.00
48936;DHT22;34745;52.276;10.528;2023-01-09T12:17:48;9.00;1.00
48936;DHT22;34745;52.276;10.528;2023-01-09T12:20:25;9.00;1.00
48936;DHT22;34745;52.276;10.528;2023-01-09T12:23:02;9.00;1.00
48936;DHT22;34745;52.276;10.528;2023-01-09T12:25:38;9.10;1.00
48936;DHT22;34745;52.276;10.528;2023-01-09T12:31:19;9.00;1.00
48936;DHT22;34745;52.276;10.528;2023-01-09T12:33:58;9.00;1.00
48936;DHT22;34745;52.276;10.528;2023-01-09T12:36:34;9.10;1.00
48936;DHT22;34745;52.276;10.528;2023-01-09T12:39:13;9.10;1.00
48936;DHT22;34745;52.276;10.528;2023-01-09T12:41:58;9.20;1.00
48936;DHT22;34745;52.276;10.528;2023-01-09T12:44:51;9.10;1.00
48936;DHT22;34745;52.276;10.528;2023-01-09T12:47:44;9.10;1.00
48936;DHT22;34745;52.276;10.528;2023-01-09T12:50:45;9.20;1.00
48936;DHT22;34745;52.276;10.528;2023-01-09T12:53:22;9.20;1.00
48936;DHT22;34745;52.276;10.528;2023-01-09T12:55:54;9.10;1.00
48936;DHT22;34745;52.276;10.528;2023-01-09T12:58:32;9.10;1.00
48936;DHT22;34745;52.276;10.528;2023-01-09T13:01:04;9.10;1.00
48936;DHT22;34745;52.276;10.528;2023-01-09T13:03:37;9.10;1.00
48936;DHT22;34745;52.276;10.528;2023-01-09T13:06:12;9.00;1.00
48936;DHT22;34745;52.276;10.528;2023-01-09T13:08:43;9.00;1.00
48936;DHT22;34745;52.276;10.528;2023-01-09T13:11:16;9.00;1.00
48936;DHT22;34745;52.276;10.528;2023-01-09T13:13:50;8.90;1.00
48936;DHT22;34745;52.276;10.528;2023-01-09T13:16:22;9.00;1.00
48936;DHT22;34745;52.276;10.528;2023-01-09T13:18:55;9.20;1.00
48936;DHT22;34745;52.276;10.528;2023-01-09T13:21:25;9.30;1.00
48936;DHT22;34745;52.276;10.528;2023-01-09T13:23:56;9.30;1.00
48936;DHT22;34745;52.276;10.528;2023-01-09T13:26:28;9.30;1.00
48936;DHT22;34745;52.276;10.528;2023-01-09T13:28:57;9.30;1.00
48936;DHT22;34745;52.276;10.528;2023-01-09T13:34:37;9.50;1.00
48936;DHT22;34745;52.276;10.528;2023-01-09T13:37:19;9.80;1.00
48936;DHT22;34745;52.276;10.528;2023-01-09T13:39:54;9.90;1.00
48936;DHT22;34745;52.276;10.528;2023-01-09T13:42:23;9.80;1.00
48936;DHT22;34745;52.276;10.528;2023-01-09T13:45:11;9.60;1.00
48936;DHT22;34745;52.276;10.528;2023-01-09T13:47:46;9.60;1.00
48936;DHT22;34745;52.276;10.528;2023-01-09T13:50:28;9.60;1.00
48936;DHT22;34745;52.276;10.528;2023-01-09T13:52:55;9.50;1.00
48936;DHT22;34745;52.276;10.528;2023-01-09T13:55:28;9.20;1.00
48936;DHT22;34745;52.276;10.528;2023-01-09T13:58:18;9.10;1.00
48936;DHT22;34745;52.276;10.528;2023-01-09T14:00:56;9.10;1.00
48936;DHT22;34745;52.276;10.528;2023-01-09T14:03:28;9.10;1.00
48936;DHT22;34745;52.276;10.528;2023-01-09T14:06:17;9.10;1.00
48936;DHT22;34745;52.276;10.528;2023-01-09T14:08:46;9.30;1.00
48936;DHT22;34745;52.276;10.528;2023-01-09T14:11:19;9.30;1.00
48936;DHT22;34745;52.276;10.528;2023-01-09T14:13:57;9.30;1.00
48936;DHT22;34745;52.276;10.528;2023-01-09T14:16:28;9.20;1.00
48936;DHT22;34745;52.276;10.528;2023-01-09T14:19:02;9.10;1.00
48936;DHT22;34745;52.276;10.528;2023-01-09T14:21:48;9.10;1.00
48936;DHT22;34745;52.276;10.528;2023-01-09T14:24:23;9.00;1.00
48936;DHT22;34745;52.276;10.528;2023-01-09T14:26:52;9.10;1.00
48936;DHT22;34745;52.276;10.528;2023-01-09T14:29:43;9.10;1.00
48936;DHT22;34745;52.276;10.528;2023-01-09T14:32:35;9.10;1.00
48936;DHT22;34745;52.276;10.528;2023-01-09T14:35:12;9.10;1.00
48936;DHT22;34745;52.276;10.528;2023-01-09T14:37:41;9.10;1.00
48936;DHT22;34745;52.276;10.528;2023-01-09T14:40:18;9.10;1.00
48936;DHT22;34745;52.276;10.528;2023-01-09T14:42:50;9.00;1.00
48936;DHT22;34745;52.276;10.528;2023-01-09T14:45:21;9.00;1.00
48936;DHT22;34745;52.276;10.528;2023-01-09T14:47:53;8.90;1.00
48936;DHT22;34745;52.276;10.528;2023-01-09T14:50:29;8.90;1.00
48936;DHT22;34745;52.276;10.528;2023-01-09T14:53:03;8.90;1.00
48936;DHT22;34745;52.276;10.528;2023-01-09T14:55:38;8.90;1.00
48936;DHT22;34745;52.276;10.528;2023-01-09T14:58:10;8.80;1.00
48936;DHT22;34745;52.276;10.528;2023-01-09T15:00:46;8.90;1.00
48936;DHT22;34745;52.276;10.528;2023-01-09T15:03:14;8.90;1.00
48936;DHT22;34745;52.276;10.528;2023-01-09T15:05:43;8.90;1.00
48936;DHT22;34745;52.276;10.528;2023-01-09T15:08:14;8.80;1.00
48936;DHT22;34745;52.276;10.528;2023-01-09T15:10:44;8.80;1.00
48936;DHT22;34745;52.276;10.528;2023-01-09T15:13:14;8.80;1.00
48936;DHT22;34745;52.276;10.528;2023-01-09T15:15:44;8.80;1.00
48936;DHT22;34745;52.276;10.528;2023-01-09T15:18:23;8.90;1.00
48936;DHT22;34745;52.276;10.528;2023-01-09T15:20:54;8.80;1.00
48936;DHT22;34745;52.276;10.528;2023-01-09T15:23:26;8.80;1.00
48936;DHT22;34745;52.276;10.528;2023-01-09T15:25:56;8.80;1.00
48936;DHT22;34745;52.276;10.528;2023-01-09T15:28:27;8.80;1.00
48936;DHT22;34745;52.276;10.528;2023-01-09T15:30:59;8.80;1.00
48936;DHT22;34745;52.276;10.528;2023-01-09T15:33:26;8.80;1.00
48936;DHT22;34745;52.276;10.528;2023-01-09T15:35:55;8.80;1.00
48936;DHT22;34745;52.276;10.528;2023-01-09T15:38:30;8.80;1.00
48936;DHT22;34745;52.276;10.528;2023-01-09T15:40:59;8.90;1.00
48936;DHT22;34745;52.276;10.528;2023-01-09T15:43:28;8.80;1.00
48936;DHT22;34745;52.276;10.528;2023-01-09T15:45:55;8.80;1.00
48936;DHT22;34745;52.276;10.528;2023-01-09T15:48:25;8.80;1.00
48936;DHT22;34745;52.276;10.528;2023-01-09T15:50:56;8.80;1.00
48936;DHT22;34745;52.276;10.528;2023-01-09T15:53:25;8.80;1.00
48936;DHT22;34745;52.276;10.528;2023-01-09T15:56:05;8.90;1.00
48936;DHT22;34745;52.276;10.528;2023-01-09T15:58:34;8.80;1.00
48936;DHT22;34745;52.276;10.528;2023-01-09T16:01:04;8.90;1.00
48936;DHT22;34745;52.276;10.528;2023-01-09T16:03:35;8.80;1.00
48936;DHT22;34745;52.276;10.528;2023-01-09T16:06:09;8.90;1.00
48936;DHT22;34745;52.276;10.528;2023-01-09T16:08:40;8.80;1.00
48936;DHT22;34745;52.276;10.528;2023-01-09T16:11:17;8.70;1.00
48936;DHT22;34745;52.276;10.528;2023-01-09T16:13:46;8.60;1.00
48936;DHT22;34745;52.276;10.528;2023-01-09T16:16:23;8.40;1.00